createdAt,value
2023-02-24T00:30:48.569Z,1004.98
2023-02-24T00:31:29.238Z,1004.93
2023-02-24T00:32:09.888Z,1004.94
2023-02-24T00:32:50.472Z,1004.94
2023-02-24T00:33:30.890Z,1004.91
2023-02-24T00:34:11.509Z,1004.91
2023-02-24T00:34:51.964Z,1004.92
2023-02-24T00:35:32.620Z,1004.92
2023-02-24T00:36:13.171Z,1004.94
2023-02-24T00:36:53.680Z,1004.93
2023-02-24T00:37:34.296Z,1004.87
2023-02-24T00:38:14.918Z,1004.85
2023-02-24T00:38:55.435Z,1004.82
2023-02-24T00:40:17.377Z,1004.86
2023-02-24T00:40:57.921Z,1004.84
2023-02-24T00:41:38.519Z,1004.83
2023-02-24T00:42:20.084Z,1004.8
2023-02-24T00:43:00.561Z,1004.84
2023-02-24T00:43:41.146Z,1004.76
2023-02-24T00:44:21.763Z,1004.83
2023-02-24T00:45:02.258Z,1004.82
2023-02-24T00:45:42.869Z,1004.8
2023-02-24T00:46:23.541Z,1004.79
2023-02-24T00:47:04.095Z,1004.81
2023-02-24T00:47:44.568Z,1004.79
2023-02-24T00:48:25.241Z,1004.77
2023-02-24T00:49:05.800Z,1004.76
2023-02-24T00:49:47.315Z,1004.75
2023-02-24T00:50:27.938Z,1004.75
2023-02-24T00:51:08.442Z,1004.75
2023-02-24T00:51:49.016Z,1004.73
2023-02-24T00:52:29.692Z,1004.71
2023-02-24T00:53:10.175Z,1004.7
2023-02-24T00:53:50.852Z,1004.68
2023-02-24T00:54:31.394Z,1004.7
2023-02-24T00:55:12.056Z,1004.68
2023-02-24T00:55:52.582Z,1004.67
2023-02-24T00:56:33.155Z,1004.68
2023-02-24T00:57:13.769Z,1004.65
2023-02-24T00:57:54.374Z,1004.64
2023-02-24T00:58:34.893Z,1004.62
2023-02-24T00:59:15.481Z,1004.64
2023-02-24T00:59:56.100Z,1004.59
2023-02-24T01:00:36.613Z,1004.59
2023-02-24T01:01:17.416Z,1004.6
2023-02-24T01:01:57.809Z,1004.6
2023-02-24T01:02:38.363Z,1004.59
2023-02-24T01:03:18.922Z,1004.58
2023-02-24T01:03:59.569Z,1004.55
2023-02-24T01:04:40.126Z,1004.53
2023-02-24T01:05:20.732Z,1004.52
2023-02-24T01:06:01.222Z,1004.51
2023-02-24T01:06:41.848Z,1004.48
2023-02-24T01:07:22.493Z,1004.52
2023-02-24T01:08:03.083Z,1004.45
2023-02-24T01:08:43.698Z,1004.48
2023-02-24T01:09:24.209Z,1004.47
2023-02-24T01:10:04.910Z,1004.45
2023-02-24T01:10:45.479Z,1004.42
2023-02-24T01:11:25.953Z,1004.44
2023-02-24T01:12:06.656Z,1004.42
2023-02-24T01:12:47.056Z,1004.42
2023-02-24T01:13:27.666Z,1004.43
2023-02-24T01:14:08.260Z,1004.36
2023-02-24T01:14:48.771Z,1004.35
2023-02-24T01:15:29.346Z,1004.31
2023-02-24T01:16:10.108Z,1004.4
2023-02-24T01:16:50.700Z,1004.33
2023-02-24T01:17:31.315Z,1004.34
2023-02-24T01:18:11.891Z,1004.33
2023-02-24T01:18:52.508Z,1004.32
2023-02-24T01:19:33.078Z,1004.33
2023-02-24T01:20:13.654Z,1004.31
2023-02-24T01:20:54.337Z,1004.32
2023-02-24T01:21:35.009Z,1004.29
2023-02-24T01:22:15.540Z,1004.32
2023-02-24T01:22:56.206Z,1004.29
2023-02-24T01:23:36.705Z,1004.26
2023-02-24T01:24:17.316Z,1004.32
2023-02-24T01:24:57.919Z,1004.28
2023-02-24T01:25:38.556Z,1004.26
2023-02-24T01:26:19.181Z,1004.26
2023-02-24T01:26:59.778Z,1004.25
2023-02-24T01:27:40.423Z,1004.21
2023-02-24T01:28:20.943Z,1004.21
2023-02-24T01:29:01.530Z,1004.21
2023-02-24T01:29:42.233Z,1004.2
2023-02-24T01:31:03.521Z,1004.14
2023-02-24T01:31:44.093Z,1004.16
2023-02-24T01:32:24.749Z,1004.18
2023-02-24T01:33:05.356Z,1004.17
2023-02-24T01:33:45.763Z,1004.15
2023-02-24T01:34:26.349Z,1004.19
2023-02-24T01:35:06.937Z,1004.15
2023-02-24T01:35:47.433Z,1004.14
2023-02-24T01:36:29.063Z,1004.19
2023-02-24T01:37:09.701Z,1004.18
2023-02-24T01:37:50.249Z,1004.16
2023-02-24T01:38:30.864Z,1004.16
2023-02-24T01:39:11.424Z,1004.13
2023-02-24T01:39:51.934Z,1004.12
2023-02-24T01:41:13.160Z,1004.11
2023-02-24T01:41:53.639Z,1004.16
2023-02-24T01:42:34.115Z,1004.13
2023-02-24T01:43:14.801Z,1004.11
2023-02-24T01:43:55.295Z,1004.14
2023-02-24T01:44:35.804Z,1004.13
2023-02-24T01:45:16.401Z,1004.12
2023-02-24T01:45:56.995Z,1004.15
2023-02-24T01:46:37.562Z,1004.1
2023-02-24T01:47:18.222Z,1004.06
2023-02-24T01:47:58.686Z,1004.09
2023-02-24T01:48:39.296Z,1004.05
2023-02-24T01:49:19.883Z,1004.11
2023-02-24T01:50:00.486Z,1004.05
2023-02-24T01:51:21.831Z,1004.08
2023-02-24T01:52:02.187Z,1004.09
2023-02-24T01:52:42.742Z,1004.04
2023-02-24T01:53:23.357Z,1004.07
2023-02-24T01:54:03.938Z,1004.03
2023-02-24T01:54:44.517Z,1004.02
2023-02-24T01:55:25.159Z,1004.01
2023-02-24T01:56:05.796Z,1003.99
2023-02-24T01:56:46.530Z,1003.98
2023-02-24T01:57:27.067Z,1003.98
2023-02-24T01:58:07.668Z,1003.98
2023-02-24T01:58:48.294Z,1003.96
2023-02-24T01:59:28.854Z,1003.96
2023-02-24T02:00:09.550Z,1003.92
2023-02-24T02:01:31.277Z,1003.9
2023-02-24T02:02:11.965Z,1003.93
2023-02-24T02:02:52.476Z,1003.92
2023-02-24T02:04:13.518Z,1003.87
2023-02-24T02:04:54.124Z,1003.98
2023-02-24T02:05:35.447Z,1003.97
2023-02-24T02:06:15.232Z,1003.96
2023-02-24T02:06:55.829Z,1003.93
2023-02-24T02:07:36.309Z,1003.97
2023-02-24T02:08:16.934Z,1003.97
2023-02-24T02:08:57.609Z,1003.91
2023-02-24T02:09:38.279Z,1003.95
2023-02-24T02:10:18.814Z,1003.9
2023-02-24T02:11:39.969Z,1003.87
2023-02-24T02:12:20.531Z,1003.9
2023-02-24T02:13:01.114Z,1003.85
2023-02-24T02:13:41.881Z,1003.87
2023-02-24T02:14:22.334Z,1003.87
2023-02-24T02:15:02.892Z,1003.86
2023-02-24T02:15:43.369Z,1003.88
2023-02-24T02:16:24.047Z,1003.83
2023-02-24T02:17:04.651Z,1003.84
2023-02-24T02:17:45.256Z,1003.82
2023-02-24T02:18:25.756Z,1003.79
2023-02-24T02:19:06.315Z,1003.83
2023-02-24T02:19:46.975Z,1003.81
2023-02-24T02:20:27.596Z,1003.78
2023-02-24T02:21:08.051Z,1003.8
2023-02-24T02:21:48.780Z,1003.77
2023-02-24T02:22:29.268Z,1003.74
2023-02-24T02:23:09.781Z,1003.73
2023-02-24T02:23:50.411Z,1003.71
2023-02-24T02:24:31.094Z,1003.68
2023-02-24T02:25:11.597Z,1003.75
2023-02-24T02:25:52.175Z,1003.72
2023-02-24T02:26:32.811Z,1003.74
2023-02-24T02:27:13.299Z,1003.69
2023-02-24T02:27:53.948Z,1003.73
2023-02-24T02:28:34.487Z,1003.68
2023-02-24T02:29:15.653Z,1003.66
2023-02-24T02:29:56.249Z,1003.67
2023-02-24T02:30:36.920Z,1003.66
2023-02-24T02:31:17.551Z,1003.64
2023-02-24T02:31:58.058Z,1003.65
2023-02-24T02:32:38.670Z,1003.67
2023-02-24T02:33:19.021Z,1003.68
2023-02-24T02:33:59.617Z,1003.61
2023-02-24T02:34:40.101Z,1003.62
2023-02-24T02:35:20.804Z,1003.6
2023-02-24T02:36:01.257Z,1003.59
2023-02-24T02:36:41.879Z,1003.62
2023-02-24T02:37:22.429Z,1003.65
2023-02-24T02:38:43.573Z,1003.61
2023-02-24T02:39:24.134Z,1003.61
2023-02-24T02:40:04.741Z,1003.58
2023-02-24T02:40:45.246Z,1003.59
2023-02-24T02:41:25.860Z,1003.56
2023-02-24T02:42:06.432Z,1003.57
2023-02-24T02:42:47.022Z,1003.6
2023-02-24T02:43:27.506Z,1003.58
2023-02-24T02:44:08.195Z,1003.6
2023-02-24T02:44:48.717Z,1003.61
2023-02-24T02:45:29.263Z,1003.57
2023-02-24T02:46:09.816Z,1003.58
2023-02-24T02:46:50.234Z,1003.61
2023-02-24T02:47:30.818Z,1003.61
2023-02-24T02:48:11.396Z,1003.6
2023-02-24T02:48:51.992Z,1003.57
2023-02-24T02:49:32.579Z,1003.57
2023-02-24T02:50:13.155Z,1003.57
2023-02-24T02:50:53.821Z,1003.6
2023-02-24T02:51:34.283Z,1003.54
2023-02-24T02:52:14.896Z,1003.51
2023-02-24T02:52:55.540Z,1003.52
2023-02-24T02:53:36.039Z,1003.52
2023-02-24T02:54:16.739Z,1003.53
2023-02-24T02:54:57.339Z,1003.49
2023-02-24T02:55:37.905Z,1003.47
2023-02-24T02:56:18.386Z,1003.43
2023-02-24T02:56:59.003Z,1003.44
2023-02-24T02:57:39.489Z,1003.43
2023-02-24T02:58:19.987Z,1003.43
2023-02-24T02:59:00.600Z,1003.4
2023-02-24T02:59:41.259Z,1003.4
2023-02-24T03:00:21.719Z,1003.37
2023-02-24T03:01:03.383Z,1003.39
2023-02-24T03:01:43.741Z,1003.34
2023-02-24T03:02:24.330Z,1003.34
2023-02-24T03:03:04.933Z,1003.34
2023-02-24T03:03:45.434Z,1003.39
2023-02-24T03:04:26.160Z,1003.36
2023-02-24T03:05:07.103Z,1003.39
2023-02-24T03:05:47.710Z,1003.42
2023-02-24T03:06:28.299Z,1003.4
2023-02-24T03:07:08.944Z,1003.41
2023-02-24T03:07:49.513Z,1003.4
2023-02-24T03:08:30.018Z,1003.38
2023-02-24T03:09:10.583Z,1003.39
2023-02-24T03:09:51.208Z,1003.38
2023-02-24T03:10:31.688Z,1003.39
2023-02-24T03:11:53.067Z,1003.36
2023-02-24T03:12:33.666Z,1003.37
2023-02-24T03:13:14.156Z,1003.33
2023-02-24T03:13:54.769Z,1003.32
2023-02-24T03:14:35.380Z,1003.32
2023-02-24T03:15:15.961Z,1003.33
2023-02-24T03:15:56.479Z,1003.34
2023-02-24T03:16:37.209Z,1003.33
2023-02-24T03:17:17.834Z,1003.29
2023-02-24T03:17:58.437Z,1003.26
2023-02-24T03:19:19.670Z,1003.26
2023-02-24T03:20:00.207Z,1003.26
2023-02-24T03:20:40.880Z,1003.22
2023-02-24T03:21:21.635Z,1003.21
2023-02-24T03:22:01.908Z,1003.23
2023-02-24T03:22:42.350Z,1003.22
2023-02-24T03:23:23.036Z,1003.2
2023-02-24T03:24:03.629Z,1003.24
2023-02-24T03:24:44.283Z,1003.18
2023-02-24T03:25:24.950Z,1003.21
2023-02-24T03:26:05.536Z,1003.21
2023-02-24T03:26:46.073Z,1003.2
2023-02-24T03:27:26.699Z,1003.17
2023-02-24T03:28:07.179Z,1003.17
2023-02-24T03:28:47.743Z,1003.2
2023-02-24T03:29:28.359Z,1003.17
2023-02-24T03:30:09.500Z,1003.18
2023-02-24T03:30:50.046Z,1003.21
2023-02-24T03:32:11.321Z,1003.22
2023-02-24T03:32:51.930Z,1003.17
2023-02-24T03:33:32.365Z,1003.18
2023-02-24T03:34:53.696Z,1003.1
2023-02-24T03:35:34.348Z,1003.15
2023-02-24T03:36:14.944Z,1003.13
2023-02-24T03:36:55.376Z,1003.09
2023-02-24T03:37:35.905Z,1003.06
2023-02-24T03:38:16.591Z,1003.07
2023-02-24T03:38:57.167Z,1003.04
2023-02-24T03:39:37.670Z,1003.06
2023-02-24T03:40:18.325Z,1003.08
2023-02-24T03:40:58.950Z,1003.03
2023-02-24T03:42:20.040Z,1003.05
2023-02-24T03:43:00.706Z,1003.04
2023-02-24T03:43:41.286Z,1002.98
2023-02-24T03:44:21.798Z,1003.01
2023-02-24T03:45:02.436Z,1002.99
2023-02-24T03:45:42.972Z,1002.99
2023-02-24T03:46:23.542Z,1003.03
2023-02-24T03:47:04.202Z,1002.99
2023-02-24T03:47:44.691Z,1003.01
2023-02-24T03:48:25.389Z,1003
2023-02-24T03:49:05.971Z,1002.97
2023-02-24T03:49:46.518Z,1002.98
2023-02-24T03:50:27.151Z,1002.98
2023-02-24T03:51:07.731Z,1002.98
2023-02-24T03:52:28.898Z,1002.97
2023-02-24T03:53:09.969Z,1002.98
2023-02-24T03:53:50.047Z,1002.96
2023-02-24T03:54:30.540Z,1002.93
2023-02-24T03:55:11.131Z,1002.94
2023-02-24T03:55:51.713Z,1002.93
2023-02-24T03:56:32.291Z,1002.94
2023-02-24T03:57:12.894Z,1002.94
2023-02-24T03:57:53.485Z,1002.95
2023-02-24T03:58:34.089Z,1002.95
2023-02-24T03:59:14.703Z,1002.99
2023-02-24T03:59:55.350Z,1002.99
2023-02-24T04:00:35.843Z,1002.98
2023-02-24T04:01:16.411Z,1002.99
2023-02-24T04:01:57.071Z,1002.97
2023-02-24T04:02:37.664Z,1002.97
2023-02-24T04:03:18.232Z,1003
2023-02-24T04:03:58.827Z,1002.95
2023-02-24T04:04:39.536Z,1002.96
2023-02-24T04:05:20.108Z,1003.01
2023-02-24T04:06:00.575Z,1002.99
2023-02-24T04:06:41.169Z,1002.97
2023-02-24T04:07:21.789Z,1002.93
2023-02-24T04:08:02.387Z,1002.96
2023-02-24T04:08:43.029Z,1002.94
2023-02-24T04:09:23.480Z,1002.93
2023-02-24T04:10:04.076Z,1002.89
2023-02-24T04:10:44.665Z,1002.92
2023-02-24T04:11:25.363Z,1002.85
2023-02-24T04:12:05.867Z,1002.91
2023-02-24T04:12:46.457Z,1002.88
2023-02-24T04:13:27.059Z,1002.89
2023-02-24T04:14:07.694Z,1002.88
2023-02-24T04:14:48.249Z,1002.88
2023-02-24T04:15:28.931Z,1002.9
2023-02-24T04:16:09.451Z,1002.9
2023-02-24T04:16:49.907Z,1002.92
2023-02-24T04:17:30.539Z,1002.93
2023-02-24T04:18:11.124Z,1002.94
2023-02-24T04:18:51.739Z,1002.91
2023-02-24T04:19:32.312Z,1002.95
2023-02-24T04:20:13.051Z,1002.93
2023-02-24T04:20:54.281Z,1002.96
2023-02-24T04:21:34.978Z,1002.94
2023-02-24T04:22:15.468Z,1002.9
2023-02-24T04:22:56.048Z,1002.92
2023-02-24T04:24:53.728Z,1002.94
2023-02-24T04:25:34.180Z,1002.91
2023-02-24T04:26:14.740Z,1002.92
2023-02-24T04:26:55.182Z,1002.92
2023-02-24T04:27:36.198Z,1002.91
2023-02-24T04:28:16.162Z,1002.89
2023-02-24T04:28:56.655Z,1002.89
2023-02-24T04:29:37.155Z,1002.87
2023-02-24T04:30:17.636Z,1002.88
2023-02-24T04:30:58.200Z,1002.88
2023-02-24T04:31:39.767Z,1002.9
2023-02-24T04:32:20.264Z,1002.84
2023-02-24T04:33:00.591Z,1002.88
2023-02-24T04:33:41.086Z,1002.87
2023-02-24T04:34:21.520Z,1002.83
2023-02-24T04:35:01.993Z,1002.84
2023-02-24T04:35:42.476Z,1002.81
2023-02-24T04:36:23.667Z,1002.78
2023-02-24T04:37:03.420Z,1002.79
2023-02-24T04:37:43.921Z,1002.8
2023-02-24T04:38:24.393Z,1002.79
2023-02-24T04:39:04.897Z,1002.81
2023-02-24T04:39:45.354Z,1002.77
2023-02-24T04:40:25.835Z,1002.77
2023-02-24T04:41:06.327Z,1002.76
2023-02-24T04:41:46.771Z,1002.73
2023-02-24T04:42:27.274Z,1002.75
2023-02-24T04:43:48.293Z,1002.73
2023-02-24T04:44:28.814Z,1002.7
2023-02-24T04:45:09.300Z,1002.71
2023-02-24T04:45:49.793Z,1002.69
2023-02-24T04:46:30.314Z,1002.68
2023-02-24T04:47:10.758Z,1002.72
2023-02-24T04:47:51.352Z,1002.69
2023-02-24T04:48:31.771Z,1002.68
2023-02-24T04:49:12.890Z,1002.69
2023-02-24T04:49:53.358Z,1002.69
2023-02-24T04:51:14.329Z,1002.66
2023-02-24T04:51:54.789Z,1002.65
2023-02-24T04:52:35.277Z,1002.67
2023-02-24T04:53:15.817Z,1002.67
2023-02-24T04:53:56.258Z,1002.65
2023-02-24T04:54:36.728Z,1002.61
2023-02-24T04:55:17.233Z,1002.62
2023-02-24T04:55:57.769Z,1002.62
2023-02-24T04:56:38.239Z,1002.64
2023-02-24T04:57:18.722Z,1002.62
2023-02-24T04:57:59.174Z,1002.64
2023-02-24T04:58:39.649Z,1002.64
2023-02-24T04:59:20.211Z,1002.66
2023-02-24T05:00:00.619Z,1002.62
2023-02-24T05:00:41.078Z,1002.67
2023-02-24T05:01:21.961Z,1002.59
2023-02-24T05:02:02.040Z,1002.61
2023-02-24T05:02:42.551Z,1002.62
2023-02-24T05:03:23.052Z,1002.62
2023-02-24T05:04:03.614Z,1002.65
2023-02-24T05:04:44.036Z,1002.62
2023-02-24T05:05:24.503Z,1002.62
2023-02-24T05:06:05.070Z,1002.58
2023-02-24T05:06:45.540Z,1002.62
2023-02-24T05:07:26.068Z,1002.61
2023-02-24T05:08:06.572Z,1002.57
2023-02-24T05:08:47.049Z,1002.56
2023-02-24T05:09:27.552Z,1002.52
2023-02-24T05:10:08.058Z,1002.54
2023-02-24T05:10:48.602Z,1002.52
2023-02-24T05:11:29.084Z,1002.54
2023-02-24T05:12:09.505Z,1002.57
2023-02-24T05:12:49.954Z,1002.47
2023-02-24T05:13:30.449Z,1002.53
2023-02-24T05:14:10.989Z,1002.47
2023-02-24T05:14:51.458Z,1002.48
2023-02-24T05:15:31.957Z,1002.4
2023-02-24T05:16:12.493Z,1002.43
2023-02-24T05:16:52.909Z,1002.38
2023-02-24T05:17:33.367Z,1002.41
2023-02-24T05:18:54.369Z,1002.38
2023-02-24T05:19:34.926Z,1002.39
2023-02-24T05:20:15.453Z,1002.41
2023-02-24T05:20:55.901Z,1002.37
2023-02-24T05:21:36.385Z,1002.36
2023-02-24T05:22:16.872Z,1002.4
2023-02-24T05:22:57.351Z,1002.41
2023-02-24T05:24:18.282Z,1002.36
2023-02-24T05:24:58.783Z,1002.37
2023-02-24T05:25:39.270Z,1002.38
2023-02-24T05:26:19.763Z,1002.37
2023-02-24T05:27:00.336Z,1002.37
2023-02-24T05:27:40.754Z,1002.37
2023-02-24T05:28:21.239Z,1002.43
2023-02-24T05:30:18.888Z,1002.38
2023-02-24T05:30:59.578Z,1002.37
2023-02-24T05:31:39.912Z,1002.39
2023-02-24T05:32:20.480Z,1002.38
2023-02-24T05:33:00.863Z,1002.39
2023-02-24T05:34:21.832Z,1002.37
2023-02-24T05:35:02.327Z,1002.42
2023-02-24T05:35:43.540Z,1002.41
2023-02-24T05:36:24.054Z,1002.4
2023-02-24T05:37:04.558Z,1002.39
2023-02-24T05:37:45.060Z,1002.4
2023-02-24T05:38:25.509Z,1002.4
2023-02-24T05:39:06.024Z,1002.4
2023-02-24T05:39:46.595Z,1002.36
2023-02-24T05:40:27.111Z,1002.35
2023-02-24T05:41:07.627Z,1002.34
2023-02-24T05:41:48.150Z,1002.36
2023-02-24T05:42:28.681Z,1002.31
2023-02-24T05:43:09.134Z,1002.33
2023-02-24T05:44:30.186Z,1002.3
2023-02-24T05:45:10.689Z,1002.31
2023-02-24T05:45:51.182Z,1002.29
2023-02-24T05:46:31.714Z,1002.3
2023-02-24T05:47:13.042Z,1002.28
2023-02-24T05:47:53.523Z,1002.3
2023-02-24T05:48:33.997Z,1002.22
2023-02-24T05:49:14.537Z,1002.24
2023-02-24T05:49:54.973Z,1002.22
2023-02-24T05:50:35.516Z,1002.23
2023-02-24T05:51:56.570Z,1002.22
2023-02-24T05:52:37.072Z,1002.23
2023-02-24T06:31:48.560Z,1001.95
2023-02-24T06:32:30.405Z,1001.9
2023-02-24T06:35:48.999Z,1001.86
2023-02-24T06:36:29.469Z,1001.86
2023-02-24T06:37:09.941Z,1001.85
2023-02-24T06:37:50.439Z,1001.79
2023-02-24T06:38:30.958Z,1001.83
2023-02-24T06:39:11.505Z,1001.8
2023-02-24T06:39:51.938Z,1001.66
2023-02-24T06:41:13.011Z,1001.83
2023-02-24T06:41:53.505Z,1001.79
2023-02-24T06:42:34.028Z,1001.81
2023-02-24T06:43:14.565Z,1001.82
2023-02-24T06:43:55.083Z,1001.79
2023-02-24T06:47:10.631Z,1001.8
2023-02-24T06:47:53.151Z,1001.78
2023-02-24T06:48:33.424Z,1001.77
2023-02-24T06:49:13.981Z,1001.79
2023-02-24T06:49:54.622Z,1001.78
2023-02-24T06:50:35.192Z,1001.77
2023-02-24T06:51:16.325Z,1001.79
2023-02-24T06:51:56.485Z,1001.73
2023-02-24T06:52:37.555Z,1001.75
2023-02-24T06:53:18.133Z,1001.77
2023-02-24T06:53:59.568Z,1001.71
2023-02-24T06:54:40.453Z,1001.81
2023-02-24T07:01:04.429Z,1001.73
2023-02-24T07:01:45.820Z,1001.76
2023-02-24T07:02:26.555Z,1001.77
2023-02-24T07:03:07.175Z,1001.75
2023-02-24T07:03:48.715Z,1001.73
2023-02-24T07:04:29.555Z,1001.79
2023-02-24T07:05:10.099Z,1001.75
2023-02-24T07:06:31.118Z,1001.76
2023-02-24T07:07:11.751Z,1001.76
2023-02-24T07:07:52.199Z,1001.83
2023-02-24T07:08:32.747Z,1001.75
2023-02-24T07:09:13.404Z,1001.8
2023-02-24T07:09:53.960Z,1001.81
2023-02-24T07:10:34.680Z,1001.8
2023-02-24T07:11:15.444Z,1001.83
2023-02-24T07:11:56.157Z,1001.8
2023-02-24T07:12:36.631Z,1001.78
2023-02-24T07:13:17.181Z,1001.78
2023-02-24T07:13:57.747Z,1001.8
2023-02-24T07:14:38.522Z,1001.77
2023-02-24T07:15:20.690Z,1001.81
2023-02-24T07:16:02.587Z,1001.81
2023-02-24T07:16:42.912Z,1001.82
2023-02-24T07:17:23.493Z,1001.81
2023-02-24T07:18:04.003Z,1001.86
2023-02-24T07:18:44.577Z,1001.84
2023-02-24T07:19:25.131Z,1001.85
2023-02-24T07:20:05.674Z,1001.84
2023-02-24T07:20:46.268Z,1001.84
2023-02-24T07:21:27.643Z,1001.85
2023-02-24T07:22:09.105Z,1001.85
2023-02-24T07:22:50.115Z,1001.86
2023-02-24T07:23:30.965Z,1001.84
2023-02-24T07:24:13.365Z,1001.81
2023-02-24T07:24:53.882Z,1001.83
2023-02-24T07:25:35.344Z,1001.83
2023-02-24T07:26:59.392Z,1001.8
2023-02-24T07:27:40.151Z,1001.79
2023-02-24T07:28:20.906Z,1001.75
2023-02-24T07:29:01.399Z,1001.75
2023-02-24T07:29:44.127Z,1001.72
2023-02-24T07:32:15.580Z,1001.69
2023-02-24T07:32:56.069Z,1001.67
2023-02-24T07:33:36.565Z,1001.67
2023-02-24T07:34:17.087Z,1001.69
2023-02-24T07:34:57.575Z,1001.68
2023-02-24T07:35:38.593Z,1001.69
2023-02-24T07:36:18.677Z,1001.67
2023-02-24T07:36:59.313Z,1001.67
2023-02-24T07:37:39.838Z,1001.66
2023-02-24T07:38:20.297Z,1001.69
2023-02-24T07:39:00.894Z,1001.66
2023-02-24T07:39:41.419Z,1001.68
2023-02-24T07:40:21.916Z,1001.67
2023-02-24T07:41:02.461Z,1001.66
2023-02-24T07:41:42.932Z,1001.73
2023-02-24T07:42:23.455Z,1001.66
2023-02-24T07:43:03.991Z,1001.69
2023-02-24T07:43:44.570Z,1001.65
2023-02-24T07:44:25.086Z,1001.65
2023-02-24T07:45:05.678Z,1001.64
2023-02-24T07:45:46.232Z,1001.62
2023-02-24T07:47:07.248Z,1001.61
2023-02-24T07:47:47.782Z,1001.6
2023-02-24T07:48:28.230Z,1001.65
2023-02-24T07:49:08.787Z,1001.6
2023-02-24T07:49:49.285Z,1001.61
2023-02-24T07:50:29.866Z,1001.61
2023-02-24T07:51:10.316Z,1001.57
2023-02-24T07:51:50.844Z,1001.59
2023-02-24T07:52:31.411Z,1001.52
2023-02-24T07:53:11.970Z,1001.52
2023-02-24T07:53:52.449Z,1001.5
2023-02-24T07:54:33.029Z,1001.53
2023-02-24T07:55:13.523Z,1001.52
2023-02-24T07:55:54.021Z,1001.49
2023-02-24T07:57:15.119Z,1001.5
2023-02-24T07:57:55.612Z,1001.52
2023-02-24T07:58:36.151Z,1001.46
2023-02-24T07:59:16.616Z,1001.45
2023-02-24T07:59:57.202Z,1001.44
2023-02-24T08:00:37.810Z,1001.39
2023-02-24T08:01:18.475Z,1001.38
2023-02-24T08:01:59.816Z,1001.37
2023-02-24T08:02:40.369Z,1001.36
2023-02-24T08:03:20.939Z,1001.33
2023-02-24T08:04:01.534Z,1001.36
2023-02-24T08:04:41.920Z,1001.39
2023-02-24T08:05:22.426Z,1001.33
2023-02-24T08:06:02.985Z,1001.33
2023-02-24T08:06:45.060Z,1001.33
2023-02-24T08:07:24.702Z,1001.31
2023-02-24T08:08:04.588Z,1001.25
2023-02-24T08:08:45.090Z,1001.28
2023-02-24T08:09:25.646Z,1001.27
2023-02-24T08:10:06.138Z,1001.24
2023-02-24T08:10:46.721Z,1001.24
2023-02-24T08:11:27.129Z,1001.22
2023-02-24T08:12:07.744Z,1001.19
2023-02-24T08:12:48.389Z,1001.19
2023-02-24T08:13:28.820Z,1001.13
2023-02-24T08:14:09.375Z,1001.16
2023-02-24T08:14:49.909Z,1001.13
2023-02-24T08:15:30.425Z,1001.15
2023-02-24T08:16:11.069Z,1001.16
2023-02-24T08:16:51.481Z,1001.11
2023-02-24T08:17:31.983Z,1001.11
2023-02-24T08:18:12.520Z,1001.03
2023-02-24T08:18:53.075Z,1001.04
2023-02-24T08:20:14.086Z,1001.01
2023-02-24T08:20:54.547Z,1000.95
2023-02-24T08:21:35.175Z,1000.96
2023-02-24T08:22:15.686Z,1000.93
2023-02-24T08:22:56.193Z,1000.94
2023-02-24T08:23:36.694Z,1000.89
2023-02-24T08:24:17.242Z,1000.85
2023-02-24T08:25:38.436Z,1000.88
2023-02-24T08:26:18.760Z,1000.85
2023-02-24T08:26:59.302Z,1000.83
2023-02-24T08:27:39.839Z,1000.86
2023-02-24T08:28:20.341Z,1000.89
2023-02-24T08:29:00.866Z,1000.91
2023-02-24T08:29:41.476Z,1000.89
2023-02-24T08:30:21.988Z,1000.85
2023-02-24T08:31:02.648Z,1000.91
2023-02-24T08:31:43.297Z,1000.86
2023-02-24T08:32:23.753Z,1000.82
2023-02-24T08:33:04.143Z,1000.85
2023-02-24T08:33:44.598Z,1000.81
2023-02-24T08:34:25.234Z,1000.79
2023-02-24T08:35:05.718Z,1000.78
2023-02-24T08:35:46.220Z,1000.76
2023-02-24T08:36:26.847Z,1000.79
2023-02-24T08:37:07.355Z,1000.82
2023-02-24T08:38:28.394Z,1000.79
2023-02-24T08:40:41.698Z,1000.79
2023-02-24T08:41:23.454Z,1000.74
2023-02-24T08:42:04.180Z,1000.73
2023-02-24T08:42:45.393Z,1000.73
2023-02-24T08:43:31.583Z,1000.72
2023-02-24T08:46:26.908Z,1000.68
2023-02-24T08:47:06.862Z,1000.69
2023-02-24T08:47:47.405Z,1000.68
2023-02-24T08:48:27.893Z,1000.7
2023-02-24T08:49:08.770Z,1000.66
2023-02-24T08:51:08.243Z,1000.55
2023-02-24T08:51:50.106Z,1000.55
2023-02-24T08:52:32.255Z,1000.54
2023-02-24T08:53:11.182Z,1000.53
2023-02-24T08:53:51.853Z,1000.49
2023-02-24T08:54:34.661Z,1000.52
2023-02-24T08:55:16.396Z,1000.49
2023-02-24T08:55:58.961Z,1000.5
2023-02-24T08:56:39.597Z,1000.47
2023-02-24T08:57:21.892Z,1000.48
2023-02-24T08:58:03.602Z,1000.51
2023-02-24T08:58:44.858Z,1000.46
2023-02-24T08:59:25.267Z,1000.43
2023-02-24T09:00:05.810Z,1000.44
2023-02-24T09:00:46.422Z,1000.46
2023-02-24T09:01:26.960Z,1000.41
2023-02-24T09:02:07.568Z,1000.4
2023-02-24T09:02:48.122Z,1000.35
2023-02-24T09:05:01.149Z,1000.37
2023-02-24T09:05:41.792Z,1000.42
2023-02-24T09:06:22.466Z,1000.39
2023-02-24T09:07:11.425Z,1000.39
2023-02-24T09:07:44.498Z,1000.35
2023-02-24T09:08:25.006Z,1000.37
2023-02-24T09:09:05.551Z,1000.35
2023-02-24T09:09:46.103Z,1000.37
2023-02-24T09:10:26.711Z,1000.38
2023-02-24T09:11:07.302Z,1000.34
2023-02-24T09:11:47.869Z,1000.32
2023-02-24T09:12:28.425Z,1000.37
2023-02-24T09:13:08.948Z,1000.32
2023-02-24T09:13:49.499Z,1000.34
2023-02-24T09:14:30.021Z,1000.34
2023-02-24T09:15:10.523Z,1000.27
2023-02-24T09:15:51.015Z,1000.31
2023-02-24T09:16:31.583Z,1000.3
2023-02-24T09:17:12.066Z,1000.31
2023-02-24T09:17:52.587Z,1000.27
2023-02-24T09:18:33.769Z,1000.25
2023-02-24T09:19:14.440Z,1000.3
2023-02-24T09:19:54.885Z,1000.34
2023-02-24T09:20:36.390Z,1000.31
2023-02-24T09:21:17.028Z,1000.3
2023-02-24T09:24:53.581Z,1000.31
2023-02-24T09:25:35.016Z,1000.33
2023-02-24T09:26:15.503Z,1000.3
2023-02-24T09:26:56.086Z,1000.33
2023-02-24T09:27:36.641Z,1000.33
2023-02-24T09:28:57.679Z,1000.29
2023-02-24T09:29:38.238Z,1000.27
2023-02-24T09:30:18.794Z,1000.29
2023-02-24T09:31:40.081Z,1000.24
2023-02-24T09:32:21.096Z,1000.23
2023-02-24T09:33:01.700Z,1000.22
2023-02-24T09:33:42.266Z,1000.23
2023-02-24T09:34:22.528Z,1000.25
2023-02-24T09:35:03.138Z,1000.18
2023-02-24T09:35:43.601Z,1000.2
2023-02-24T09:36:24.156Z,1000.17
2023-02-24T09:37:04.715Z,1000.15
2023-02-24T09:40:33.710Z,1000.05
2023-02-24T09:41:18.772Z,1000.02
2023-02-24T09:41:54.964Z,1000.04
2023-02-24T09:42:36.270Z,999.99
2023-02-24T09:43:16.087Z,1000.03
2023-02-24T09:43:56.617Z,1000.02
2023-02-24T09:44:37.658Z,1000.01
2023-02-24T09:45:18.398Z,1000.03
2023-02-24T09:46:00.247Z,1000.07
2023-02-24T09:46:40.685Z,1000
2023-02-24T09:47:22.146Z,1000.05
2023-02-24T09:48:02.740Z,1000.08
2023-02-24T09:48:43.296Z,1000.03
2023-02-24T09:49:23.886Z,1000.1
2023-02-24T09:52:22.660Z,1000.09
2023-02-24T09:53:11.010Z,1000.14
2023-02-24T09:53:43.622Z,1000.11
2023-02-24T09:54:24.085Z,1000.1
2023-02-24T09:55:07.464Z,1000.07
2023-02-24T09:55:48.163Z,1000.09
2023-02-24T09:56:28.752Z,1000.04
2023-02-24T09:57:09.472Z,1000.07
2023-02-24T09:57:50.398Z,1000.04
2023-02-24T09:58:42.968Z,1000
2023-02-24T09:59:11.496Z,1000.04
2023-02-24T09:59:52.074Z,1000.03
2023-02-24T10:02:52.079Z,1000.02
2023-02-24T10:03:33.233Z,1000.05
2023-02-24T10:06:31.835Z,999.89
2023-02-24T10:07:12.367Z,999.92
2023-02-24T10:07:52.911Z,999.92
2023-02-24T10:08:33.437Z,999.88
2023-02-24T10:09:13.930Z,999.85
2023-02-24T10:09:54.471Z,999.83
2023-02-24T10:10:34.968Z,999.87
2023-02-24T10:11:15.528Z,999.86
2023-02-24T10:11:56.024Z,999.83
2023-02-24T10:12:36.659Z,999.88
2023-02-24T10:13:17.189Z,999.86
2023-02-24T10:14:03.350Z,999.85
2023-02-24T10:14:43.587Z,999.86
2023-02-24T10:16:06.113Z,999.8
2023-02-24T10:16:41.414Z,999.8
2023-02-24T10:17:22.728Z,999.81
2023-02-24T10:18:02.410Z,999.72
2023-02-24T10:18:43.009Z,999.8